sensor_id;sensor_type;location;lat;lon;timestamp;P1;durP1;ratioP1;P2;durP2;ratioP2
9801;SDS011;4940;50.900;4.672;2023-12-07T00:00:51;60.50;;;44.83;;
9801;SDS011;4940;50.900;4.672;2023-12-07T00:03:19;55.10;;;49.37;;
9801;SDS011;4940;50.900;4.672;2023-12-07T00:05:47;60.17;;;49.97;;
9801;SDS011;4940;50.900;4.672;2023-12-07T00:08:14;61.88;;;52.05;;
9801;SDS011;4940;50.900;4.672;2023-12-07T00:10:42;55.90;;;49.92;;
9801;SDS011;4940;50.900;4.672;2023-12-07T00:13:09;56.27;;;43.63;;
9801;SDS011;4940;50.900;4.672;2023-12-07T00:15:38;64.45;;;47.75;;
9801;SDS011;4940;50.900;4.672;2023-12-07T00:18:06;69.75;;;62.58;;
9801;SDS011;4940;50.900;4.672;2023-12-07T00:20:33;66.60;;;59.83;;
9801;SDS011;4940;50.900;4.672;2023-12-07T00:23:02;68.90;;;61.60;;
9801;SDS011;4940;50.900;4.672;2023-12-07T00:25:31;74.37;;;66.80;;
9801;SDS011;4940;50.900;4.672;2023-12-07T00:28:00;74.57;;;66.57;;
9801;SDS011;4940;50.900;4.672;2023-12-07T00:30:28;77.45;;;70.82;;
9801;SDS011;4940;50.900;4.672;2023-12-07T00:32:55;78.37;;;70.00;;
9801;SDS011;4940;50.900;4.672;2023-12-07T00:35:23;75.35;;;68.43;;
9801;SDS011;4940;50.900;4.672;2023-12-07T00:37:54;57.65;;;50.63;;
9801;SDS011;4940;50.900;4.672;2023-12-07T00:40:23;65.95;;;59.55;;
9801;SDS011;4940;50.900;4.672;2023-12-07T00:42:51;64.57;;;56.40;;
9801;SDS011;4940;50.900;4.672;2023-12-07T00:45:18;65.03;;;58.53;;
9801;SDS011;4940;50.900;4.672;2023-12-07T00:47:45;64.80;;;57.92;;
9801;SDS011;4940;50.900;4.672;2023-12-07T00:50:13;59.27;;;52.83;;
9801;SDS011;4940;50.900;4.672;2023-12-07T00:52:40;59.77;;;53.67;;
9801;SDS011;4940;50.900;4.672;2023-12-07T00:55:09;54.83;;;48.50;;
9801;SDS011;4940;50.900;4.672;2023-12-07T00:57:41;57.03;;;50.87;;
9801;SDS011;4940;50.900;4.672;2023-12-07T01:00:09;54.77;;;48.97;;
9801;SDS011;4940;50.900;4.672;2023-12-07T01:02:36;59.77;;;53.50;;
9801;SDS011;4940;50.900;4.672;2023-12-07T01:05:04;54.80;;;49.17;;
9801;SDS011;4940;50.900;4.672;2023-12-07T01:07:32;55.67;;;49.57;;
9801;SDS011;4940;50.900;4.672;2023-12-07T01:09:59;54.53;;;47.97;;
9801;SDS011;4940;50.900;4.672;2023-12-07T01:12:26;55.23;;;48.03;;
9801;SDS011;4940;50.900;4.672;2023-12-07T01:14:55;57.97;;;50.60;;
9801;SDS011;4940;50.900;4.672;2023-12-07T01:17:22;59.73;;;49.40;;
9801;SDS011;4940;50.900;4.672;2023-12-07T01:19:50;55.77;;;48.93;;
9801;SDS011;4940;50.900;4.672;2023-12-07T01:22:17;56.60;;;50.50;;
9801;SDS011;4940;50.900;4.672;2023-12-07T01:24:45;63.90;;;49.13;;
9801;SDS011;4940;50.900;4.672;2023-12-07T01:27:13;59.73;;;49.17;;
9801;SDS011;4940;50.900;4.672;2023-12-07T01:29:41;57.97;;;51.13;;
9801;SDS011;4940;50.900;4.672;2023-12-07T01:32:10;61.73;;;52.87;;
9801;SDS011;4940;50.900;4.672;2023-12-07T01:34:39;61.07;;;48.60;;
9801;SDS011;4940;50.900;4.672;2023-12-07T01:37:12;63.50;;;50.30;;
9801;SDS011;4940;50.900;4.672;2023-12-07T01:39:45;58.55;;;48.60;;
9801;SDS011;4940;50.900;4.672;2023-12-07T01:42:13;63.33;;;56.63;;
9801;SDS011;4940;50.900;4.672;2023-12-07T01:44:41;66.00;;;59.07;;
9801;SDS011;4940;50.900;4.672;2023-12-07T01:47:10;63.57;;;56.60;;
9801;SDS011;4940;50.900;4.672;2023-12-07T01:49:37;59.40;;;53.40;;
9801;SDS011;4940;50.900;4.672;2023-12-07T01:52:05;62.65;;;55.83;;
9801;SDS011;4940;50.900;4.672;2023-12-07T01:54:33;67.63;;;60.23;;
9801;SDS011;4940;50.900;4.672;2023-12-07T01:57:01;63.63;;;57.20;;
9801;SDS011;4940;50.900;4.672;2023-12-07T01:59:29;62.92;;;56.33;;
9801;SDS011;4940;50.900;4.672;2023-12-07T02:01:56;67.57;;;60.27;;
9801;SDS011;4940;50.900;4.672;2023-12-07T02:04:25;64.47;;;55.87;;
9801;SDS011;4940;50.900;4.672;2023-12-07T02:06:53;64.50;;;56.73;;
9801;SDS011;4940;50.900;4.672;2023-12-07T02:09:21;61.00;;;53.03;;
9801;SDS011;4940;50.900;4.672;2023-12-07T02:11:48;63.03;;;55.33;;
9801;SDS011;4940;50.900;4.672;2023-12-07T02:14:17;67.03;;;56.35;;
9801;SDS011;4940;50.900;4.672;2023-12-07T02:16:51;62.60;;;55.88;;
9801;SDS011;4940;50.900;4.672;2023-12-07T02:19:38;65.87;;;59.10;;
9801;SDS011;4940;50.900;4.672;2023-12-07T02:22:22;61.38;;;54.67;;
9801;SDS011;4940;50.900;4.672;2023-12-07T02:25:01;65.30;;;55.27;;
9801;SDS011;4940;50.900;4.672;2023-12-07T02:27:36;71.50;;;60.80;;
9801;SDS011;4940;50.900;4.672;2023-12-07T02:30:04;65.68;;;58.65;;
9801;SDS011;4940;50.900;4.672;2023-12-07T02:32:32;71.13;;;56.03;;
9801;SDS011;4940;50.900;4.672;2023-12-07T02:34:59;64.33;;;57.53;;
9801;SDS011;4940;50.900;4.672;2023-12-07T02:37:27;67.00;;;59.93;;
9801;SDS011;4940;50.900;4.672;2023-12-07T02:39:56;64.45;;;57.58;;
9801;SDS011;4940;50.900;4.672;2023-12-07T02:42:24;64.67;;;58.07;;
9801;SDS011;4940;50.900;4.672;2023-12-07T02:44:54;66.60;;;59.55;;
9801;SDS011;4940;50.900;4.672;2023-12-07T02:47:22;68.90;;;61.87;;
9801;SDS011;4940;50.900;4.672;2023-12-07T02:49:49;63.60;;;56.87;;
9801;SDS011;4940;50.900;4.672;2023-12-07T02:52:16;63.77;;;57.67;;
9801;SDS011;4940;50.900;4.672;2023-12-07T02:54:44;61.63;;;55.27;;
9801;SDS011;4940;50.900;4.672;2023-12-07T02:57:11;57.13;;;50.83;;
9801;SDS011;4940;50.900;4.672;2023-12-07T02:59:40;57.85;;;51.53;;
9801;SDS011;4940;50.900;4.672;2023-12-07T03:02:08;58.47;;;52.40;;
9801;SDS011;4940;50.900;4.672;2023-12-07T03:04:35;59.20;;;52.75;;
9801;SDS011;4940;50.900;4.672;2023-12-07T03:07:03;57.33;;;50.70;;
9801;SDS011;4940;50.900;4.672;2023-12-07T03:09:30;58.13;;;52.05;;
9801;SDS011;4940;50.900;4.672;2023-12-07T03:11:58;61.08;;;53.13;;
9801;SDS011;4940;50.900;4.672;2023-12-07T03:14:25;57.58;;;49.75;;
9801;SDS011;4940;50.900;4.672;2023-12-07T03:16:52;55.17;;;49.57;;
9801;SDS011;4940;50.900;4.672;2023-12-07T03:19:21;58.38;;;52.13;;
9801;SDS011;4940;50.900;4.672;2023-12-07T03:21:48;58.40;;;52.45;;
9801;SDS011;4940;50.900;4.672;2023-12-07T03:24:16;56.20;;;49.90;;
9801;SDS011;4940;50.900;4.672;2023-12-07T03:26:45;56.43;;;50.43;;
9801;SDS011;4940;50.900;4.672;2023-12-07T03:29:13;57.10;;;51.03;;
9801;SDS011;4940;50.900;4.672;2023-12-07T03:31:40;58.08;;;52.22;;
9801;SDS011;4940;50.900;4.672;2023-12-07T03:34:08;58.88;;;52.80;;
9801;SDS011;4940;50.900;4.672;2023-12-07T03:36:36;62.15;;;55.53;;
9801;SDS011;4940;50.900;4.672;2023-12-07T03:39:04;59.58;;;53.28;;
9801;SDS011;4940;50.900;4.672;2023-12-07T03:41:31;62.55;;;56.35;;
9801;SDS011;4940;50.900;4.672;2023-12-07T03:43:59;54.20;;;48.75;;
9801;SDS011;4940;50.900;4.672;2023-12-07T03:46:26;60.33;;;54.22;;
9801;SDS011;4940;50.900;4.672;2023-12-07T03:48:54;61.53;;;55.63;;
9801;SDS011;4940;50.900;4.672;2023-12-07T03:51:21;56.58;;;51.08;;
9801;SDS011;4940;50.900;4.672;2023-12-07T03:53:50;58.45;;;52.80;;
9801;SDS011;4940;50.900;4.672;2023-12-07T03:56:24;57.40;;;51.70;;
9801;SDS011;4940;50.900;4.672;2023-12-07T03:58:51;58.67;;;53.28;;
9801;SDS011;4940;50.900;4.672;2023-12-07T04:01:21;58.17;;;52.15;;
9801;SDS011;4940;50.900;4.672;2023-12-07T04:03:50;57.22;;;51.45;;
9801;SDS011;4940;50.900;4.672;2023-12-07T04:06:17;53.40;;;48.50;;
9801;SDS011;4940;50.900;4.672;2023-12-07T04:08:46;54.97;;;49.88;;
9801;SDS011;4940;50.900;4.672;2023-12-07T04:11:14;54.97;;;49.97;;
9801;SDS011;4940;50.900;4.672;2023-12-07T04:13:42;55.57;;;50.37;;
9801;SDS011;4940;50.900;4.672;2023-12-07T04:16:09;52.30;;;47.20;;
9801;SDS011;4940;50.900;4.672;2023-12-07T04:18:37;54.33;;;48.95;;
9801;SDS011;4940;50.900;4.672;2023-12-07T04:21:04;60.20;;;54.57;;
9801;SDS011;4940;50.900;4.672;2023-12-07T04:23:32;55.70;;;50.30;;
9801;SDS011;4940;50.900;4.672;2023-12-07T04:26:00;55.30;;;50.40;;
9801;SDS011;4940;50.900;4.672;2023-12-07T04:28:29;55.72;;;50.50;;
9801;SDS011;4940;50.900;4.672;2023-12-07T04:30:56;55.53;;;50.30;;
9801;SDS011;4940;50.900;4.672;2023-12-07T04:33:23;58.07;;;52.23;;
9801;SDS011;4940;50.900;4.672;2023-12-07T04:35:51;57.15;;;52.08;;
9801;SDS011;4940;50.900;4.672;2023-12-07T04:38:18;56.00;;;50.55;;
9801;SDS011;4940;50.900;4.672;2023-12-07T04:40:45;58.25;;;53.05;;
9801;SDS011;4940;50.900;4.672;2023-12-07T04:43:13;57.90;;;52.08;;
9801;SDS011;4940;50.900;4.672;2023-12-07T04:45:41;56.22;;;50.83;;
9801;SDS011;4940;50.900;4.672;2023-12-07T04:48:09;54.87;;;49.53;;
9801;SDS011;4940;50.900;4.672;2023-12-07T04:50:36;54.33;;;48.95;;
9801;SDS011;4940;50.900;4.672;2023-12-07T04:53:04;55.33;;;49.97;;
9801;SDS011;4940;50.900;4.672;2023-12-07T04:55:31;54.88;;;49.88;;
9801;SDS011;4940;50.900;4.672;2023-12-07T04:57:58;55.03;;;50.00;;
9801;SDS011;4940;50.900;4.672;2023-12-07T05:00:26;57.13;;;51.90;;
9801;SDS011;4940;50.900;4.672;2023-12-07T05:02:54;60.80;;;54.90;;
9801;SDS011;4940;50.900;4.672;2023-12-07T05:05:22;57.60;;;52.00;;
9801;SDS011;4940;50.900;4.672;2023-12-07T05:07:49;55.35;;;49.90;;
9801;SDS011;4940;50.900;4.672;2023-12-07T05:10:17;55.50;;;50.33;;
9801;SDS011;4940;50.900;4.672;2023-12-07T05:12:44;52.33;;;47.40;;
9801;SDS011;4940;50.900;4.672;2023-12-07T05:15:11;55.00;;;49.60;;
9801;SDS011;4940;50.900;4.672;2023-12-07T05:17:39;55.28;;;50.17;;
9801;SDS011;4940;50.900;4.672;2023-12-07T05:20:08;50.90;;;45.80;;
9801;SDS011;4940;50.900;4.672;2023-12-07T05:22:37;59.17;;;53.47;;
9801;SDS011;4940;50.900;4.672;2023-12-07T05:25:05;64.07;;;58.50;;
9801;SDS011;4940;50.900;4.672;2023-12-07T05:27:33;62.80;;;57.43;;
9801;SDS011;4940;50.900;4.672;2023-12-07T05:30:01;62.33;;;57.20;;
9801;SDS011;4940;50.900;4.672;2023-12-07T05:32:28;59.88;;;54.65;;
9801;SDS011;4940;50.900;4.672;2023-12-07T05:34:55;64.10;;;58.90;;
9801;SDS011;4940;50.900;4.672;2023-12-07T05:37:24;64.67;;;59.17;;
9801;SDS011;4940;50.900;4.672;2023-12-07T05:39:52;62.33;;;56.80;;
9801;SDS011;4940;50.900;4.672;2023-12-07T05:42:20;61.13;;;56.10;;
9801;SDS011;4940;50.900;4.672;2023-12-07T05:44:47;58.42;;;53.42;;
9801;SDS011;4940;50.900;4.672;2023-12-07T05:47:14;61.20;;;56.20;;
9801;SDS011;4940;50.900;4.672;2023-12-07T05:49:42;49.97;;;45.17;;
9801;SDS011;4940;50.900;4.672;2023-12-07T05:52:09;48.83;;;44.57;;
9801;SDS011;4940;50.900;4.672;2023-12-07T05:54:38;48.70;;;44.30;;
9801;SDS011;4940;50.900;4.672;2023-12-07T05:57:07;46.57;;;42.27;;
9801;SDS011;4940;50.900;4.672;2023-12-07T05:59:36;45.75;;;41.25;;
9801;SDS011;4940;50.900;4.672;2023-12-07T06:02:04;43.80;;;39.70;;
9801;SDS011;4940;50.900;4.672;2023-12-07T06:04:31;42.15;;;38.05;;
9801;SDS011;4940;50.900;4.672;2023-12-07T06:06:59;41.73;;;37.80;;
9801;SDS011;4940;50.900;4.672;2023-12-07T06:09:27;42.53;;;38.40;;
9801;SDS011;4940;50.900;4.672;2023-12-07T06:11:56;42.20;;;38.40;;
9801;SDS011;4940;50.900;4.672;2023-12-07T06:14:24;44.00;;;40.00;;
9801;SDS011;4940;50.900;4.672;2023-12-07T06:16:51;43.33;;;39.33;;
9801;SDS011;4940;50.900;4.672;2023-12-07T06:19:19;45.57;;;41.37;;
9801;SDS011;4940;50.900;4.672;2023-12-07T06:21:46;45.23;;;41.03;;
9801;SDS011;4940;50.900;4.672;2023-12-07T06:24:14;46.20;;;42.03;;
9801;SDS011;4940;50.900;4.672;2023-12-07T06:26:43;47.43;;;42.97;;
9801;SDS011;4940;50.900;4.672;2023-12-07T06:29:11;46.42;;;42.22;;
9801;SDS011;4940;50.900;4.672;2023-12-07T06:31:42;47.17;;;43.08;;
9801;SDS011;4940;50.900;4.672;2023-12-07T06:34:10;48.03;;;43.80;;
9801;SDS011;4940;50.900;4.672;2023-12-07T06:36:37;48.60;;;43.95;;
9801;SDS011;4940;50.900;4.672;2023-12-07T06:39:04;47.92;;;43.63;;
9801;SDS011;4940;50.900;4.672;2023-12-07T06:41:32;44.05;;;39.83;;
9801;SDS011;4940;50.900;4.672;2023-12-07T06:43:59;42.60;;;38.60;;
9801;SDS011;4940;50.900;4.672;2023-12-07T06:46:28;44.70;;;40.42;;
9801;SDS011;4940;50.900;4.672;2023-12-07T06:48:55;44.65;;;40.30;;
9801;SDS011;4940;50.900;4.672;2023-12-07T06:51:23;46.00;;;41.70;;
9801;SDS011;4940;50.900;4.672;2023-12-07T06:53:50;45.03;;;41.00;;
9801;SDS011;4940;50.900;4.672;2023-12-07T06:56:18;46.87;;;42.87;;
9801;SDS011;4940;50.900;4.672;2023-12-07T06:58:45;50.03;;;45.83;;
9801;SDS011;4940;50.900;4.672;2023-12-07T07:01:13;54.83;;;49.57;;
9801;SDS011;4940;50.900;4.672;2023-12-07T07:03:41;45.13;;;40.67;;
9801;SDS011;4940;50.900;4.672;2023-12-07T07:06:09;52.23;;;47.37;;
9801;SDS011;4940;50.900;4.672;2023-12-07T07:08:36;52.30;;;47.83;;
9801;SDS011;4940;50.900;4.672;2023-12-07T07:11:09;50.77;;;46.50;;
9801;SDS011;4940;50.900;4.672;2023-12-07T07:13:38;60.93;;;55.93;;
9801;SDS011;4940;50.900;4.672;2023-12-07T07:16:06;66.30;;;60.80;;
9801;SDS011;4940;50.900;4.672;2023-12-07T07:18:34;69.33;;;64.00;;
9801;SDS011;4940;50.900;4.672;2023-12-07T07:21:03;70.20;;;64.00;;
9801;SDS011;4940;50.900;4.672;2023-12-07T07:23:30;79.40;;;73.30;;
9801;SDS011;4940;50.900;4.672;2023-12-07T07:25:58;73.17;;;67.57;;
9801;SDS011;4940;50.900;4.672;2023-12-07T07:28:25;71.43;;;65.77;;
9801;SDS011;4940;50.900;4.672;2023-12-07T07:30:52;70.40;;;64.90;;
9801;SDS011;4940;50.900;4.672;2023-12-07T07:33:20;71.53;;;66.23;;
9801;SDS011;4940;50.900;4.672;2023-12-07T07:35:47;57.63;;;52.70;;
9801;SDS011;4940;50.900;4.672;2023-12-07T07:38:16;60.83;;;55.73;;
9801;SDS011;4940;50.900;4.672;2023-12-07T07:40:43;61.75;;;56.63;;
9801;SDS011;4940;50.900;4.672;2023-12-07T07:43:12;59.75;;;54.30;;
9801;SDS011;4940;50.900;4.672;2023-12-07T07:45:40;57.40;;;52.40;;
9801;SDS011;4940;50.900;4.672;2023-12-07T07:48:07;58.40;;;52.80;;
9801;SDS011;4940;50.900;4.672;2023-12-07T07:50:35;61.60;;;56.13;;
9801;SDS011;4940;50.900;4.672;2023-12-07T07:53:02;58.97;;;53.47;;
9801;SDS011;4940;50.900;4.672;2023-12-07T07:55:31;58.03;;;52.60;;
9801;SDS011;4940;50.900;4.672;2023-12-07T07:57:58;57.67;;;52.77;;
9801;SDS011;4940;50.900;4.672;2023-12-07T08:00:26;56.57;;;51.67;;
9801;SDS011;4940;50.900;4.672;2023-12-07T08:02:53;56.13;;;50.93;;
9801;SDS011;4940;50.900;4.672;2023-12-07T08:05:20;58.97;;;53.93;;
9801;SDS011;4940;50.900;4.672;2023-12-07T08:07:48;58.57;;;53.63;;
9801;SDS011;4940;50.900;4.672;2023-12-07T08:10:15;53.83;;;48.70;;
9801;SDS011;4940;50.900;4.672;2023-12-07T08:12:44;54.67;;;49.27;;
9801;SDS011;4940;50.900;4.672;2023-12-07T08:15:11;56.13;;;50.70;;
9801;SDS011;4940;50.900;4.672;2023-12-07T08:17:39;54.83;;;49.37;;
9801;SDS011;4940;50.900;4.672;2023-12-07T08:20:07;53.60;;;48.50;;
9801;SDS011;4940;50.900;4.672;2023-12-07T08:22:35;56.63;;;51.20;;
9801;SDS011;4940;50.900;4.672;2023-12-07T08:25:03;56.93;;;51.53;;
9801;SDS011;4940;50.900;4.672;2023-12-07T08:27:31;58.40;;;52.47;;
9801;SDS011;4940;50.900;4.672;2023-12-07T08:30:00;59.03;;;53.23;;
9801;SDS011;4940;50.900;4.672;2023-12-07T08:32:28;59.77;;;54.13;;
9801;SDS011;4940;50.900;4.672;2023-12-07T08:34:55;61.13;;;54.93;;
9801;SDS011;4940;50.900;4.672;2023-12-07T08:37:23;59.70;;;54.30;;
9801;SDS011;4940;50.900;4.672;2023-12-07T08:39:50;59.30;;;53.67;;
9801;SDS011;4940;50.900;4.672;2023-12-07T08:42:17;61.37;;;55.43;;
9801;SDS011;4940;50.900;4.672;2023-12-07T08:44:45;58.35;;;52.75;;
9801;SDS011;4940;50.900;4.672;2023-12-07T08:47:13;57.73;;;52.03;;
9801;SDS011;4940;50.900;4.672;2023-12-07T08:49:41;57.30;;;51.60;;
9801;SDS011;4940;50.900;4.672;2023-12-07T08:52:08;53.00;;;48.00;;
9801;SDS011;4940;50.900;4.672;2023-12-07T08:54:36;52.17;;;47.03;;
9801;SDS011;4940;50.900;4.672;2023-12-07T08:57:03;53.30;;;48.30;;
9801;SDS011;4940;50.900;4.672;2023-12-07T08:59:30;54.47;;;48.85;;
9801;SDS011;4940;50.900;4.672;2023-12-07T09:01:58;54.13;;;48.90;;
9801;SDS011;4940;50.900;4.672;2023-12-07T09:04:26;52.40;;;47.42;;
9801;SDS011;4940;50.900;4.672;2023-12-07T09:06:54;46.08;;;41.97;;
9801;SDS011;4940;50.900;4.672;2023-12-07T09:09:21;45.10;;;40.90;;
9801;SDS011;4940;50.900;4.672;2023-12-07T09:11:49;43.38;;;39.10;;
9801;SDS011;4940;50.900;4.672;2023-12-07T09:14:16;42.63;;;38.60;;
9801;SDS011;4940;50.900;4.672;2023-12-07T09:16:43;44.05;;;39.78;;
9801;SDS011;4940;50.900;4.672;2023-12-07T09:19:11;46.35;;;41.63;;
9801;SDS011;4940;50.900;4.672;2023-12-07T09:21:40;47.92;;;43.33;;
9801;SDS011;4940;50.900;4.672;2023-12-07T09:24:07;48.33;;;43.92;;
9801;SDS011;4940;50.900;4.672;2023-12-07T09:26:35;49.30;;;44.75;;
9801;SDS011;4940;50.900;4.672;2023-12-07T09:29:02;48.38;;;43.75;;
9801;SDS011;4940;50.900;4.672;2023-12-07T09:31:31;46.42;;;42.25;;
9801;SDS011;4940;50.900;4.672;2023-12-07T09:33:57;48.22;;;43.75;;
9801;SDS011;4940;50.900;4.672;2023-12-07T09:36:25;46.85;;;42.75;;
9801;SDS011;4940;50.900;4.672;2023-12-07T09:38:54;47.40;;;42.80;;
9801;SDS011;4940;50.900;4.672;2023-12-07T09:41:22;47.75;;;43.15;;
9801;SDS011;4940;50.900;4.672;2023-12-07T09:43:50;50.25;;;45.50;;
9801;SDS011;4940;50.900;4.672;2023-12-07T09:46:18;50.00;;;45.35;;
9801;SDS011;4940;50.900;4.672;2023-12-07T09:48:45;47.92;;;43.33;;
9801;SDS011;4940;50.900;4.672;2023-12-07T09:51:15;46.88;;;42.70;;
9801;SDS011;4940;50.900;4.672;2023-12-07T09:53:43;49.60;;;45.30;;
9801;SDS011;4940;50.900;4.672;2023-12-07T09:56:16;50.50;;;45.70;;
9801;SDS011;4940;50.900;4.672;2023-12-07T09:58:43;48.20;;;43.88;;
9801;SDS011;4940;50.900;4.672;2023-12-07T10:01:11;48.55;;;44.20;;
9801;SDS011;4940;50.900;4.672;2023-12-07T10:03:40;48.20;;;44.00;;
9801;SDS011;4940;50.900;4.672;2023-12-07T10:06:08;46.80;;;42.50;;
9801;SDS011;4940;50.900;4.672;2023-12-07T10:08:35;46.88;;;42.78;;
9801;SDS011;4940;50.900;4.672;2023-12-07T10:11:03;45.70;;;41.80;;
9801;SDS011;4940;50.900;4.672;2023-12-07T10:13:33;47.15;;;43.13;;
9801;SDS011;4940;50.900;4.672;2023-12-07T10:16:05;46.83;;;42.47;;
9801;SDS011;4940;50.900;4.672;2023-12-07T10:18:34;46.85;;;42.55;;
9801;SDS011;4940;50.900;4.672;2023-12-07T10:21:02;49.15;;;44.25;;
9801;SDS011;4940;50.900;4.672;2023-12-07T10:23:29;46.10;;;42.13;;
9801;SDS011;4940;50.900;4.672;2023-12-07T10:25:58;46.42;;;42.47;;
9801;SDS011;4940;50.900;4.672;2023-12-07T10:28:26;47.53;;;42.88;;
9801;SDS011;4940;50.900;4.672;2023-12-07T10:30:55;47.53;;;43.30;;
9801;SDS011;4940;50.900;4.672;2023-12-07T10:33:25;46.88;;;42.60;;
9801;SDS011;4940;50.900;4.672;2023-12-07T10:35:52;45.55;;;41.45;;
9801;SDS011;4940;50.900;4.672;2023-12-07T10:38:20;44.10;;;40.33;;
9801;SDS011;4940;50.900;4.672;2023-12-07T10:40:47;46.42;;;42.63;;
9801;SDS011;4940;50.900;4.672;2023-12-07T10:43:26;43.72;;;39.72;;
9801;SDS011;4940;50.900;4.672;2023-12-07T10:45:55;43.65;;;39.83;;
9801;SDS011;4940;50.900;4.672;2023-12-07T10:48:22;47.10;;;43.05;;
9801;SDS011;4940;50.900;4.672;2023-12-07T10:50:51;45.78;;;41.85;;
9801;SDS011;4940;50.900;4.672;2023-12-07T10:53:24;43.05;;;39.55;;
9801;SDS011;4940;50.900;4.672;2023-12-07T10:55:55;42.88;;;39.53;;
9801;SDS011;4940;50.900;4.672;2023-12-07T10:58:26;41.25;;;37.75;;
9801;SDS011;4940;50.900;4.672;2023-12-07T11:00:55;41.42;;;38.10;;
9801;SDS011;4940;50.900;4.672;2023-12-07T11:03:23;41.58;;;37.83;;
9801;SDS011;4940;50.900;4.672;2023-12-07T11:05:51;39.30;;;36.25;;
9801;SDS011;4940;50.900;4.672;2023-12-07T11:08:20;38.95;;;35.83;;
9801;SDS011;4940;50.900;4.672;2023-12-07T11:10:58;37.70;;;34.58;;
9801;SDS011;4940;50.900;4.672;2023-12-07T11:13:31;38.35;;;35.25;;
9801;SDS011;4940;50.900;4.672;2023-12-07T11:16:02;36.75;;;34.05;;
9801;SDS011;4940;50.900;4.672;2023-12-07T11:18:30;35.00;;;31.65;;
9801;SDS011;4940;50.900;4.672;2023-12-07T11:20:57;36.63;;;33.72;;
9801;SDS011;4940;50.900;4.672;2023-12-07T11:23:26;35.33;;;32.72;;
9801;SDS011;4940;50.900;4.672;2023-12-07T11:25:54;36.75;;;33.88;;
9801;SDS011;4940;50.900;4.672;2023-12-07T11:28:33;35.95;;;32.88;;
9801;SDS011;4940;50.900;4.672;2023-12-07T11:31:03;37.00;;;33.72;;
9801;SDS011;4940;50.900;4.672;2023-12-07T11:33:32;36.50;;;33.50;;
9801;SDS011;4940;50.900;4.672;2023-12-07T11:36:03;35.28;;;32.55;;
9801;SDS011;4940;50.900;4.672;2023-12-07T11:38:31;34.00;;;31.65;;
9801;SDS011;4940;50.900;4.672;2023-12-07T11:40:59;34.53;;;32.13;;
9801;SDS011;4940;50.900;4.672;2023-12-07T11:46:14;31.77;;;29.63;;
9801;SDS011;4940;50.900;4.672;2023-12-07T11:48:47;31.83;;;29.63;;
9801;SDS011;4940;50.900;4.672;2023-12-07T11:51:15;32.85;;;30.45;;
9801;SDS011;4940;50.900;4.672;2023-12-07T11:53:43;33.40;;;30.83;;
9801;SDS011;4940;50.900;4.672;2023-12-07T11:56:10;30.92;;;28.83;;
9801;SDS011;4940;50.900;4.672;2023-12-07T11:58:38;30.05;;;27.77;;
9801;SDS011;4940;50.900;4.672;2023-12-07T12:01:06;26.95;;;25.05;;
9801;SDS011;4940;50.900;4.672;2023-12-07T12:03:36;26.77;;;24.67;;
9801;SDS011;4940;50.900;4.672;2023-12-07T12:06:04;24.77;;;23.00;;
9801;SDS011;4940;50.900;4.672;2023-12-07T12:08:33;22.42;;;20.60;;
9801;SDS011;4940;50.900;4.672;2023-12-07T12:11:00;22.75;;;20.88;;
9801;SDS011;4940;50.900;4.672;2023-12-07T12:13:28;24.02;;;21.98;;
9801;SDS011;4940;50.900;4.672;2023-12-07T12:15:56;22.13;;;20.58;;
9801;SDS011;4940;50.900;4.672;2023-12-07T12:18:23;22.20;;;20.45;;
9801;SDS011;4940;50.900;4.672;2023-12-07T12:20:53;23.08;;;21.05;;
9801;SDS011;4940;50.900;4.672;2023-12-07T12:23:22;21.48;;;19.98;;
9801;SDS011;4940;50.900;4.672;2023-12-07T12:25:49;22.77;;;21.02;;
9801;SDS011;4940;50.900;4.672;2023-12-07T12:28:17;22.35;;;20.48;;
9801;SDS011;4940;50.900;4.672;2023-12-07T12:30:48;20.27;;;18.88;;
9801;SDS011;4940;50.900;4.672;2023-12-07T12:33:17;20.58;;;19.08;;
9801;SDS011;4940;50.900;4.672;2023-12-07T12:35:44;20.38;;;18.83;;
9801;SDS011;4940;50.900;4.672;2023-12-07T12:38:13;18.45;;;16.98;;
9801;SDS011;4940;50.900;4.672;2023-12-07T12:40:40;20.48;;;18.77;;
9801;SDS011;4940;50.900;4.672;2023-12-07T12:43:09;20.05;;;18.65;;
9801;SDS011;4940;50.900;4.672;2023-12-07T12:45:36;18.48;;;17.17;;
9801;SDS011;4940;50.900;4.672;2023-12-07T12:48:04;17.95;;;16.70;;
9801;SDS011;4940;50.900;4.672;2023-12-07T12:50:33;19.75;;;18.38;;
9801;SDS011;4940;50.900;4.672;2023-12-07T12:53:02;19.50;;;18.00;;
9801;SDS011;4940;50.900;4.672;2023-12-07T12:55:32;21.52;;;19.92;;
9801;SDS011;4940;50.900;4.672;2023-12-07T12:58:00;20.50;;;18.98;;
9801;SDS011;4940;50.900;4.672;2023-12-07T13:00:29;19.08;;;17.45;;
9801;SDS011;4940;50.900;4.672;2023-12-07T13:02:58;19.75;;;18.25;;
9801;SDS011;4940;50.900;4.672;2023-12-07T13:05:25;19.83;;;18.13;;
9801;SDS011;4940;50.900;4.672;2023-12-07T13:07:53;19.05;;;17.58;;
9801;SDS011;4940;50.900;4.672;2023-12-07T13:10:20;18.20;;;16.73;;
9801;SDS011;4940;50.900;4.672;2023-12-07T13:12:49;18.67;;;17.15;;
9801;SDS011;4940;50.900;4.672;2023-12-07T13:15:16;18.38;;;16.90;;
9801;SDS011;4940;50.900;4.672;2023-12-07T13:17:44;19.02;;;17.63;;
9801;SDS011;4940;50.900;4.672;2023-12-07T13:20:11;19.73;;;18.13;;
9801;SDS011;4940;50.900;4.672;2023-12-07T13:22:39;18.95;;;17.35;;
9801;SDS011;4940;50.900;4.672;2023-12-07T13:25:09;18.05;;;16.73;;
9801;SDS011;4940;50.900;4.672;2023-12-07T13:27:37;17.05;;;15.85;;
9801;SDS011;4940;50.900;4.672;2023-12-07T13:30:06;16.02;;;14.60;;
9801;SDS011;4940;50.900;4.672;2023-12-07T13:32:34;18.02;;;16.63;;
9801;SDS011;4940;50.900;4.672;2023-12-07T13:35:03;19.40;;;17.90;;
9801;SDS011;4940;50.900;4.672;2023-12-07T13:37:31;16.73;;;15.13;;
9801;SDS011;4940;50.900;4.672;2023-12-07T13:39:59;17.58;;;16.08;;
9801;SDS011;4940;50.900;4.672;2023-12-07T13:42:29;15.82;;;14.45;;
9801;SDS011;4940;50.900;4.672;2023-12-07T13:44:57;16.00;;;14.68;;
9801;SDS011;4940;50.900;4.672;2023-12-07T13:47:27;16.02;;;14.70;;
9801;SDS011;4940;50.900;4.672;2023-12-07T13:49:59;17.58;;;16.15;;
9801;SDS011;4940;50.900;4.672;2023-12-07T13:52:28;16.92;;;15.60;;
9801;SDS011;4940;50.900;4.672;2023-12-07T13:55:23;15.68;;;14.35;;
9801;SDS011;4940;50.900;4.672;2023-12-07T13:57:53;15.18;;;13.95;;
9801;SDS011;4940;50.900;4.672;2023-12-07T14:00:22;16.05;;;14.65;;
9801;SDS011;4940;50.900;4.672;2023-12-07T14:02:51;14.80;;;13.52;;
9801;SDS011;4940;50.900;4.672;2023-12-07T14:05:18;14.27;;;12.88;;
9801;SDS011;4940;50.900;4.672;2023-12-07T14:07:46;13.30;;;12.07;;
9801;SDS011;4940;50.900;4.672;2023-12-07T14:10:13;13.13;;;12.00;;
9801;SDS011;4940;50.900;4.672;2023-12-07T14:12:41;11.70;;;10.60;;
9801;SDS011;4940;50.900;4.672;2023-12-07T14:15:09;12.23;;;11.18;;
9801;SDS011;4940;50.900;4.672;2023-12-07T14:17:36;11.82;;;10.63;;
9801;SDS011;4940;50.900;4.672;2023-12-07T14:20:05;12.65;;;11.45;;
9801;SDS011;4940;50.900;4.672;2023-12-07T14:22:34;12.60;;;11.45;;
9801;SDS011;4940;50.900;4.672;2023-12-07T14:25:02;11.88;;;10.73;;
9801;SDS011;4940;50.900;4.672;2023-12-07T14:27:29;11.68;;;10.63;;
9801;SDS011;4940;50.900;4.672;2023-12-07T14:29:57;12.38;;;11.38;;
9801;SDS011;4940;50.900;4.672;2023-12-07T14:32:24;12.48;;;11.30;;
9801;SDS011;4940;50.900;4.672;2023-12-07T14:34:52;12.25;;;11.15;;
9801;SDS011;4940;50.900;4.672;2023-12-07T14:37:22;13.10;;;11.82;;
9801;SDS011;4940;50.900;4.672;2023-12-07T14:39:49;11.77;;;10.68;;
9801;SDS011;4940;50.900;4.672;2023-12-07T14:42:16;12.40;;;10.48;;
9801;SDS011;4940;50.900;4.672;2023-12-07T14:44:44;12.60;;;11.43;;
9801;SDS011;4940;50.900;4.672;2023-12-07T14:47:13;13.77;;;12.20;;
9801;SDS011;4940;50.900;4.672;2023-12-07T14:49:41;11.75;;;10.65;;
9801;SDS011;4940;50.900;4.672;2023-12-07T14:52:08;12.75;;;11.75;;
9801;SDS011;4940;50.900;4.672;2023-12-07T14:54:37;13.20;;;11.88;;
9801;SDS011;4940;50.900;4.672;2023-12-07T14:57:05;13.05;;;11.95;;